sensor_id;sensor_type;location;lat;lon;timestamp;temperature;humidity
20463;DHT22;10390;53.566;9.980;2022-12-07T00:01:21;25.20;1.00
20463;DHT22;10390;53.566;9.980;2022-12-07T00:03:51;25.20;1.00
20463;DHT22;10390;53.566;9.980;2022-12-07T00:06:18;25.20;1.00
20463;DHT22;10390;53.566;9.980;2022-12-07T00:08:45;25.20;1.00
20463;DHT22;10390;53.566;9.980;2022-12-07T00:11:17;25.20;1.00
20463;DHT22;10390;53.566;9.980;2022-12-07T00:13:45;25.20;1.00
20463;DHT22;10390;53.566;9.980;2022-12-07T00:16:17;25.20;1.00
20463;DHT22;10390;53.566;9.980;2022-12-07T00:18:44;25.10;1.00
20463;DHT22;10390;53.566;9.980;2022-12-07T00:23:42;25.10;1.00
20463;DHT22;10390;53.566;9.980;2022-12-07T00:26:17;25.00;1.00
20463;DHT22;10390;53.566;9.980;2022-12-07T00:28:47;25.00;1.00
20463;DHT22;10390;53.566;9.980;2022-12-07T00:31:16;24.90;1.00
20463;DHT22;10390;53.566;9.980;2022-12-07T00:33:43;24.90;1.00
20463;DHT22;10390;53.566;9.980;2022-12-07T00:36:12;24.80;1.00
20463;DHT22;10390;53.566;9.980;2022-12-07T00:38:40;24.70;1.00
20463;DHT22;10390;53.566;9.980;2022-12-07T00:41:13;24.70;1.00
20463;DHT22;10390;53.566;9.980;2022-12-07T00:43:42;24.70;1.00
20463;DHT22;10390;53.566;9.980;2022-12-07T00:46:09;24.70;1.00
20463;DHT22;10390;53.566;9.980;2022-12-07T00:48:35;24.70;1.00
20463;DHT22;10390;53.566;9.980;2022-12-07T00:51:02;24.80;1.00
20463;DHT22;10390;53.566;9.980;2022-12-07T00:53:28;24.80;1.00
20463;DHT22;10390;53.566;9.980;2022-12-07T00:55:54;24.90;1.00
20463;DHT22;10390;53.566;9.980;2022-12-07T00:58:22;24.90;1.00
20463;DHT22;10390;53.566;9.980;2022-12-07T01:00:48;25.00;1.00
20463;DHT22;10390;53.566;9.980;2022-12-07T01:03:15;25.10;1.00
20463;DHT22;10390;53.566;9.980;2022-12-07T01:05:50;25.10;1.00
20463;DHT22;10390;53.566;9.980;2022-12-07T01:08:17;25.10;1.00
20463;DHT22;10390;53.566;9.980;2022-12-07T01:10:43;25.10;1.00
20463;DHT22;10390;53.566;9.980;2022-12-07T01:13:09;25.20;1.00
20463;DHT22;10390;53.566;9.980;2022-12-07T01:15:39;25.20;1.00
20463;DHT22;10390;53.566;9.980;2022-12-07T01:18:09;25.10;1.00
20463;DHT22;10390;53.566;9.980;2022-12-07T01:20:37;25.10;1.00
20463;DHT22;10390;53.566;9.980;2022-12-07T01:23:03;25.10;1.00
20463;DHT22;10390;53.566;9.980;2022-12-07T01:25:28;25.10;1.00
20463;DHT22;10390;53.566;9.980;2022-12-07T01:27:54;25.00;1.00
20463;DHT22;10390;53.566;9.980;2022-12-07T01:30:21;25.00;1.00
20463;DHT22;10390;53.566;9.980;2022-12-07T01:32:47;25.00;1.00
20463;DHT22;10390;53.566;9.980;2022-12-07T01:35:13;24.90;1.00
20463;DHT22;10390;53.566;9.980;2022-12-07T01:37:39;24.90;1.00
20463;DHT22;10390;53.566;9.980;2022-12-07T01:40:07;24.80;1.00
20463;DHT22;10390;53.566;9.980;2022-12-07T01:42:34;24.80;1.00
20463;DHT22;10390;53.566;9.980;2022-12-07T01:47:49;24.70;1.00
20463;DHT22;10390;53.566;9.980;2022-12-07T01:50:18;24.70;1.00
20463;DHT22;10390;53.566;9.980;2022-12-07T01:52:47;24.70;1.00
20463;DHT22;10390;53.566;9.980;2022-12-07T01:55:16;24.70;1.00
20463;DHT22;10390;53.566;9.980;2022-12-07T01:57:47;24.80;1.00
20463;DHT22;10390;53.566;9.980;2022-12-07T02:00:15;24.80;1.00
20463;DHT22;10390;53.566;9.980;2022-12-07T02:05:38;25.00;1.00
20463;DHT22;10390;53.566;9.980;2022-12-07T02:08:06;25.00;1.00
20463;DHT22;10390;53.566;9.980;2022-12-07T02:10:32;25.10;1.00
20463;DHT22;10390;53.566;9.980;2022-12-07T02:13:03;25.10;1.00
20463;DHT22;10390;53.566;9.980;2022-12-07T02:20:56;25.20;1.00
20463;DHT22;10390;53.566;9.980;2022-12-07T02:23:45;25.20;1.00
20463;DHT22;10390;53.566;9.980;2022-12-07T02:29:13;25.20;1.00
20463;DHT22;10390;53.566;9.980;2022-12-07T02:32:12;25.10;1.00
20463;DHT22;10390;53.566;9.980;2022-12-07T02:40:52;25.00;1.00
20463;DHT22;10390;53.566;9.980;2022-12-07T02:43:31;24.90;1.00
20463;DHT22;10390;53.566;9.980;2022-12-07T02:46:04;24.90;1.00
20463;DHT22;10390;53.566;9.980;2022-12-07T02:48:33;24.80;1.00
20463;DHT22;10390;53.566;9.980;2022-12-07T02:50:59;24.80;1.00
20463;DHT22;10390;53.566;9.980;2022-12-07T02:56:35;24.70;1.00
20463;DHT22;10390;53.566;9.980;2022-12-07T03:13:37;24.90;1.00
20463;DHT22;10390;53.566;9.980;2022-12-07T03:16:14;25.00;1.00
20463;DHT22;10390;53.566;9.980;2022-12-07T03:18:53;25.00;1.00
20463;DHT22;10390;53.566;9.980;2022-12-07T03:21:43;25.10;1.00
20463;DHT22;10390;53.566;9.980;2022-12-07T03:24:17;25.10;1.00
20463;DHT22;10390;53.566;9.980;2022-12-07T03:26:49;25.10;1.00
20463;DHT22;10390;53.566;9.980;2022-12-07T03:29:22;25.10;1.00
20463;DHT22;10390;53.566;9.980;2022-12-07T03:32:02;25.10;1.00
20463;DHT22;10390;53.566;9.980;2022-12-07T03:34:36;25.10;1.00
20463;DHT22;10390;53.566;9.980;2022-12-07T03:37:14;25.10;1.00
20463;DHT22;10390;53.566;9.980;2022-12-07T03:42:24;25.10;1.00
20463;DHT22;10390;53.566;9.980;2022-12-07T03:44:50;25.00;1.00
20463;DHT22;10390;53.566;9.980;2022-12-07T03:47:33;24.90;1.00
20463;DHT22;10390;53.566;9.980;2022-12-07T03:50:11;24.90;1.00
20463;DHT22;10390;53.566;9.980;2022-12-07T03:52:45;24.90;1.00
20463;DHT22;10390;53.566;9.980;2022-12-07T03:55:23;24.90;1.00
20463;DHT22;10390;53.566;9.980;2022-12-07T03:57:56;24.80;1.00
20463;DHT22;10390;53.566;9.980;2022-12-07T04:00:24;24.80;1.00
20463;DHT22;10390;53.566;9.980;2022-12-07T04:02:54;24.70;1.00
20463;DHT22;10390;53.566;9.980;2022-12-07T04:05:20;24.70;1.00
20463;DHT22;10390;53.566;9.980;2022-12-07T04:07:46;24.80;1.00
20463;DHT22;10390;53.566;9.980;2022-12-07T04:10:12;24.80;1.00
20463;DHT22;10390;53.566;9.980;2022-12-07T04:12:38;24.80;1.00
20463;DHT22;10390;53.566;9.980;2022-12-07T04:15:05;24.90;1.00
20463;DHT22;10390;53.566;9.980;2022-12-07T04:17:32;24.90;1.00
20463;DHT22;10390;53.566;9.980;2022-12-07T04:19:57;25.00;1.00
20463;DHT22;10390;53.566;9.980;2022-12-07T04:22:23;25.00;1.00
20463;DHT22;10390;53.566;9.980;2022-12-07T04:24:49;25.00;1.00
20463;DHT22;10390;53.566;9.980;2022-12-07T04:27:15;25.10;1.00
20463;DHT22;10390;53.566;9.980;2022-12-07T04:29:41;25.10;1.00
20463;DHT22;10390;53.566;9.980;2022-12-07T04:32:06;25.10;1.00
20463;DHT22;10390;53.566;9.980;2022-12-07T04:34:32;25.10;1.00
20463;DHT22;10390;53.566;9.980;2022-12-07T04:36:58;25.10;1.00
20463;DHT22;10390;53.566;9.980;2022-12-07T04:39:29;25.10;1.00
20463;DHT22;10390;53.566;9.980;2022-12-07T04:41:57;25.10;1.00
20463;DHT22;10390;53.566;9.980;2022-12-07T04:44:24;25.10;1.00
20463;DHT22;10390;53.566;9.980;2022-12-07T04:46:51;25.10;1.00
20463;DHT22;10390;53.566;9.980;2022-12-07T04:49:17;25.10;1.00
20463;DHT22;10390;53.566;9.980;2022-12-07T04:51:44;25.00;1.00
20463;DHT22;10390;53.566;9.980;2022-12-07T04:54:11;25.00;1.00
20463;DHT22;10390;53.566;9.980;2022-12-07T04:56:38;24.90;1.00
20463;DHT22;10390;53.566;9.980;2022-12-07T04:59:04;24.90;1.00
20463;DHT22;10390;53.566;9.980;2022-12-07T05:01:31;24.80;1.00
20463;DHT22;10390;53.566;9.980;2022-12-07T05:03:57;24.80;1.00
20463;DHT22;10390;53.566;9.980;2022-12-07T05:06:23;24.80;1.00
20463;DHT22;10390;53.566;9.980;2022-12-07T05:08:50;24.80;1.00
20463;DHT22;10390;53.566;9.980;2022-12-07T05:11:16;24.70;1.00
20463;DHT22;10390;53.566;9.980;2022-12-07T05:14:01;24.80;1.00
20463;DHT22;10390;53.566;9.980;2022-12-07T05:16:28;24.80;1.00
20463;DHT22;10390;53.566;9.980;2022-12-07T05:18:54;24.80;1.00
20463;DHT22;10390;53.566;9.980;2022-12-07T05:21:19;24.80;1.00
20463;DHT22;10390;53.566;9.980;2022-12-07T05:23:45;24.90;1.00
20463;DHT22;10390;53.566;9.980;2022-12-07T05:26:11;24.90;1.00
20463;DHT22;10390;53.566;9.980;2022-12-07T05:28:37;24.90;1.00
20463;DHT22;10390;53.566;9.980;2022-12-07T05:31:03;25.00;1.00
20463;DHT22;10390;53.566;9.980;2022-12-07T05:33:29;25.00;1.00
20463;DHT22;10390;53.566;9.980;2022-12-07T05:35:54;25.10;1.00
20463;DHT22;10390;53.566;9.980;2022-12-07T05:38:20;25.10;1.00
20463;DHT22;10390;53.566;9.980;2022-12-07T05:40:46;25.10;1.00
20463;DHT22;10390;53.566;9.980;2022-12-07T05:43:13;25.10;1.00
20463;DHT22;10390;53.566;9.980;2022-12-07T05:45:39;25.10;1.00
20463;DHT22;10390;53.566;9.980;2022-12-07T05:48:05;25.10;1.00
20463;DHT22;10390;53.566;9.980;2022-12-07T05:50:31;25.10;1.00
20463;DHT22;10390;53.566;9.980;2022-12-07T05:52:56;25.10;1.00
20463;DHT22;10390;53.566;9.980;2022-12-07T05:55:22;25.00;1.00
20463;DHT22;10390;53.566;9.980;2022-12-07T05:57:48;25.00;1.00
20463;DHT22;10390;53.566;9.980;2022-12-07T06:00:32;25.00;1.00
20463;DHT22;10390;53.566;9.980;2022-12-07T06:02:58;24.90;1.00
20463;DHT22;10390;53.566;9.980;2022-12-07T06:05:25;24.90;1.00
20463;DHT22;10390;53.566;9.980;2022-12-07T06:07:50;24.90;1.00
20463;DHT22;10390;53.566;9.980;2022-12-07T06:10:16;24.80;1.00
20463;DHT22;10390;53.566;9.980;2022-12-07T06:12:42;24.80;1.00
20463;DHT22;10390;53.566;9.980;2022-12-07T06:15:09;24.70;1.00
20463;DHT22;10390;53.566;9.980;2022-12-07T06:17:36;24.70;1.00
20463;DHT22;10390;53.566;9.980;2022-12-07T06:20:03;24.70;1.00
20463;DHT22;10390;53.566;9.980;2022-12-07T06:22:29;24.70;1.00
20463;DHT22;10390;53.566;9.980;2022-12-07T06:24:55;24.80;1.00
20463;DHT22;10390;53.566;9.980;2022-12-07T06:27:21;24.80;1.00
20463;DHT22;10390;53.566;9.980;2022-12-07T06:29:47;24.80;1.00
20463;DHT22;10390;53.566;9.980;2022-12-07T06:32:12;24.90;1.00
20463;DHT22;10390;53.566;9.980;2022-12-07T06:34:38;24.90;1.00
20463;DHT22;10390;53.566;9.980;2022-12-07T06:37:04;24.90;1.00
20463;DHT22;10390;53.566;9.980;2022-12-07T06:39:30;24.90;1.00
20463;DHT22;10390;53.566;9.980;2022-12-07T06:41:58;24.90;1.00
20463;DHT22;10390;53.566;9.980;2022-12-07T06:44:24;25.00;1.00
20463;DHT22;10390;53.566;9.980;2022-12-07T06:46:50;25.00;1.00
20463;DHT22;10390;53.566;9.980;2022-12-07T06:49:17;25.00;1.00
20463;DHT22;10390;53.566;9.980;2022-12-07T06:51:43;25.00;1.00
20463;DHT22;10390;53.566;9.980;2022-12-07T06:54:13;25.00;1.00
20463;DHT22;10390;53.566;9.980;2022-12-07T06:56:40;25.00;1.00
20463;DHT22;10390;53.566;9.980;2022-12-07T06:59:07;24.90;1.00
20463;DHT22;10390;53.566;9.980;2022-12-07T07:01:35;24.90;1.00
20463;DHT22;10390;53.566;9.980;2022-12-07T07:04:01;24.90;1.00
20463;DHT22;10390;53.566;9.980;2022-12-07T07:06:27;24.80;1.00
20463;DHT22;10390;53.566;9.980;2022-12-07T07:08:56;24.80;1.00
20463;DHT22;10390;53.566;9.980;2022-12-07T07:11:22;24.70;1.00
20463;DHT22;10390;53.566;9.980;2022-12-07T07:13:47;24.70;1.00
20463;DHT22;10390;53.566;9.980;2022-12-07T07:16:13;24.70;1.00
20463;DHT22;10390;53.566;9.980;2022-12-07T07:18:39;24.70;1.00
20463;DHT22;10390;53.566;9.980;2022-12-07T07:21:06;24.70;1.00
20463;DHT22;10390;53.566;9.980;2022-12-07T07:23:32;24.70;1.00
20463;DHT22;10390;53.566;9.980;2022-12-07T07:25:58;24.70;1.00
20463;DHT22;10390;53.566;9.980;2022-12-07T07:28:24;24.70;1.00
20463;DHT22;10390;53.566;9.980;2022-12-07T07:30:50;24.80;1.00
20463;DHT22;10390;53.566;9.980;2022-12-07T07:33:16;24.80;1.00
20463;DHT22;10390;53.566;9.980;2022-12-07T07:35:42;24.90;1.00
20463;DHT22;10390;53.566;9.980;2022-12-07T07:38:08;24.90;1.00
20463;DHT22;10390;53.566;9.980;2022-12-07T07:40:34;24.90;1.00
20463;DHT22;10390;53.566;9.980;2022-12-07T07:43:00;24.90;1.00
20463;DHT22;10390;53.566;9.980;2022-12-07T07:45:27;24.90;1.00
20463;DHT22;10390;53.566;9.980;2022-12-07T07:47:53;24.90;1.00
20463;DHT22;10390;53.566;9.980;2022-12-07T07:50:19;24.90;1.00
20463;DHT22;10390;53.566;9.980;2022-12-07T07:52:45;24.90;1.00
20463;DHT22;10390;53.566;9.980;2022-12-07T07:55:11;24.90;1.00
20463;DHT22;10390;53.566;9.980;2022-12-07T07:57:38;24.90;1.00
20463;DHT22;10390;53.566;9.980;2022-12-07T08:00:07;24.90;1.00
20463;DHT22;10390;53.566;9.980;2022-12-07T08:02:36;24.80;1.00
20463;DHT22;10390;53.566;9.980;2022-12-07T08:05:02;24.80;1.00
20463;DHT22;10390;53.566;9.980;2022-12-07T08:07:28;24.70;1.00
20463;DHT22;10390;53.566;9.980;2022-12-07T08:09:54;24.70;1.00
20463;DHT22;10390;53.566;9.980;2022-12-07T08:12:21;24.60;1.00
20463;DHT22;10390;53.566;9.980;2022-12-07T08:14:47;24.60;1.00
20463;DHT22;10390;53.566;9.980;2022-12-07T08:17:13;24.50;1.00
20463;DHT22;10390;53.566;9.980;2022-12-07T08:19:39;24.50;1.00
20463;DHT22;10390;53.566;9.980;2022-12-07T08:22:04;24.50;1.00
20463;DHT22;10390;53.566;9.980;2022-12-07T08:24:33;24.50;1.00
20463;DHT22;10390;53.566;9.980;2022-12-07T08:26:59;24.50;1.00
20463;DHT22;10390;53.566;9.980;2022-12-07T08:29:25;24.50;1.00
20463;DHT22;10390;53.566;9.980;2022-12-07T08:31:51;24.60;1.00
20463;DHT22;10390;53.566;9.980;2022-12-07T08:34:18;24.60;1.00
20463;DHT22;10390;53.566;9.980;2022-12-07T08:36:44;24.60;1.00
20463;DHT22;10390;53.566;9.980;2022-12-07T08:39:11;24.70;1.00
20463;DHT22;10390;53.566;9.980;2022-12-07T08:41:37;24.70;1.00
20463;DHT22;10390;53.566;9.980;2022-12-07T08:44:03;24.80;1.00
20463;DHT22;10390;53.566;9.980;2022-12-07T08:46:38;24.80;1.00
20463;DHT22;10390;53.566;9.980;2022-12-07T08:49:18;24.80;1.00
20463;DHT22;10390;53.566;9.980;2022-12-07T08:51:48;24.80;1.00
20463;DHT22;10390;53.566;9.980;2022-12-07T08:54:16;24.80;1.00
20463;DHT22;10390;53.566;9.980;2022-12-07T08:56:44;24.80;1.00
20463;DHT22;10390;53.566;9.980;2022-12-07T08:59:12;24.80;1.00
20463;DHT22;10390;53.566;9.980;2022-12-07T09:01:39;24.70;1.00
20463;DHT22;10390;53.566;9.980;2022-12-07T09:04:05;24.70;1.00
20463;DHT22;10390;53.566;9.980;2022-12-07T09:06:31;24.70;1.00
20463;DHT22;10390;53.566;9.980;2022-12-07T09:08:59;24.70;1.00
20463;DHT22;10390;53.566;9.980;2022-12-07T09:11:28;24.70;1.00
20463;DHT22;10390;53.566;9.980;2022-12-07T09:13:56;24.60;1.00
20463;DHT22;10390;53.566;9.980;2022-12-07T09:16:22;24.60;1.00
20463;DHT22;10390;53.566;9.980;2022-12-07T09:18:48;24.60;1.00
20463;DHT22;10390;53.566;9.980;2022-12-07T09:21:14;24.60;1.00
20463;DHT22;10390;53.566;9.980;2022-12-07T09:23:42;24.50;1.00
20463;DHT22;10390;53.566;9.980;2022-12-07T09:26:08;24.60;1.00
20463;DHT22;10390;53.566;9.980;2022-12-07T09:28:35;24.60;1.00
20463;DHT22;10390;53.566;9.980;2022-12-07T09:31:02;24.60;1.00
20463;DHT22;10390;53.566;9.980;2022-12-07T09:33:28;24.70;1.00
20463;DHT22;10390;53.566;9.980;2022-12-07T09:35:54;24.70;1.00
20463;DHT22;10390;53.566;9.980;2022-12-07T09:38:20;24.70;1.00
20463;DHT22;10390;53.566;9.980;2022-12-07T09:40:47;24.80;1.00
20463;DHT22;10390;53.566;9.980;2022-12-07T09:43:22;24.90;1.00
20463;DHT22;10390;53.566;9.980;2022-12-07T09:45:52;24.90;1.00
20463;DHT22;10390;53.566;9.980;2022-12-07T09:48:31;24.90;1.00
20463;DHT22;10390;53.566;9.980;2022-12-07T09:51:00;25.00;1.00
20463;DHT22;10390;53.566;9.980;2022-12-07T09:53:33;25.00;1.00
20463;DHT22;10390;53.566;9.980;2022-12-07T09:56:02;24.90;1.00
20463;DHT22;10390;53.566;9.980;2022-12-07T09:58:29;25.00;1.00
20463;DHT22;10390;53.566;9.980;2022-12-07T10:01:09;24.90;1.00
20463;DHT22;10390;53.566;9.980;2022-12-07T10:03:42;25.00;1.00
20463;DHT22;10390;53.566;9.980;2022-12-07T10:06:12;24.90;1.00
20463;DHT22;10390;53.566;9.980;2022-12-07T10:08:42;24.90;1.00
20463;DHT22;10390;53.566;9.980;2022-12-07T10:11:09;24.90;1.00
20463;DHT22;10390;53.566;9.980;2022-12-07T10:13:42;24.80;1.00
20463;DHT22;10390;53.566;9.980;2022-12-07T10:19:31;24.80;1.00
20463;DHT22;10390;53.566;9.980;2022-12-07T10:22:04;24.90;1.00
20463;DHT22;10390;53.566;9.980;2022-12-07T10:24:41;25.00;1.00
20463;DHT22;10390;53.566;9.980;2022-12-07T10:27:26;25.10;1.00
20463;DHT22;10390;53.566;9.980;2022-12-07T10:29:57;25.30;1.00
20463;DHT22;10390;53.566;9.980;2022-12-07T10:32:35;25.40;1.00
20463;DHT22;10390;53.566;9.980;2022-12-07T10:35:35;25.60;1.00
20463;DHT22;10390;53.566;9.980;2022-12-07T10:38:16;25.70;1.00
20463;DHT22;10390;53.566;9.980;2022-12-07T10:40:42;25.80;1.00
20463;DHT22;10390;53.566;9.980;2022-12-07T10:43:18;26.00;1.00
20463;DHT22;10390;53.566;9.980;2022-12-07T10:46:21;26.10;1.00
20463;DHT22;10390;53.566;9.980;2022-12-07T10:49:25;26.20;1.00
20463;DHT22;10390;53.566;9.980;2022-12-07T10:58:43;26.50;1.00
20463;DHT22;10390;53.566;9.980;2022-12-07T11:01:34;26.60;1.00
20463;DHT22;10390;53.566;9.980;2022-12-07T11:04:59;26.70;1.00
20463;DHT22;10390;53.566;9.980;2022-12-07T11:13:08;26.90;1.00
20463;DHT22;10390;53.566;9.980;2022-12-07T11:32:00;26.80;1.00
20463;DHT22;10390;53.566;9.980;2022-12-07T11:37:13;26.80;1.00
20463;DHT22;10390;53.566;9.980;2022-12-07T11:39:52;26.70;1.00
20463;DHT22;10390;53.566;9.980;2022-12-07T11:42:26;26.70;1.00
20463;DHT22;10390;53.566;9.980;2022-12-07T11:50:40;26.60;1.00
20463;DHT22;10390;53.566;9.980;2022-12-07T11:53:22;26.50;1.00
20463;DHT22;10390;53.566;9.980;2022-12-07T11:56:16;26.50;1.00
20463;DHT22;10390;53.566;9.980;2022-12-07T11:59:07;26.40;1.00
20463;DHT22;10390;53.566;9.980;2022-12-07T12:01:53;26.40;1.00
20463;DHT22;10390;53.566;9.980;2022-12-07T12:04:47;26.30;1.00
20463;DHT22;10390;53.566;9.980;2022-12-07T12:07:21;26.20;1.00
20463;DHT22;10390;53.566;9.980;2022-12-07T12:10:14;26.10;1.00
20463;DHT22;10390;53.566;9.980;2022-12-07T12:16:36;25.80;1.00
20463;DHT22;10390;53.566;9.980;2022-12-07T12:21:29;25.60;1.00
20463;DHT22;10390;53.566;9.980;2022-12-07T12:26:36;25.40;1.00
20463;DHT22;10390;53.566;9.980;2022-12-07T12:29:28;25.30;1.00
20463;DHT22;10390;53.566;9.980;2022-12-07T12:32:18;25.20;1.00
20463;DHT22;10390;53.566;9.980;2022-12-07T12:37:48;25.00;1.00
20463;DHT22;10390;53.566;9.980;2022-12-07T12:42:56;24.80;1.00
20463;DHT22;10390;53.566;9.980;2022-12-07T12:45:27;24.70;1.00
20463;DHT22;10390;53.566;9.980;2022-12-07T12:48:04;24.60;1.00
20463;DHT22;10390;53.566;9.980;2022-12-07T12:54:14;24.50;1.00
20463;DHT22;10390;53.566;9.980;2022-12-07T12:59:55;24.30;1.00
20463;DHT22;10390;53.566;9.980;2022-12-07T13:02:32;24.30;1.00
20463;DHT22;10390;53.566;9.980;2022-12-07T13:05:02;24.30;1.00
20463;DHT22;10390;53.566;9.980;2022-12-07T13:10:34;24.40;1.00
20463;DHT22;10390;53.566;9.980;2022-12-07T13:15:40;24.50;1.00
20463;DHT22;10390;53.566;9.980;2022-12-07T13:23:51;24.80;1.00
20463;DHT22;10390;53.566;9.980;2022-12-07T13:29:13;24.90;1.00
20463;DHT22;10390;53.566;9.980;2022-12-07T13:31:49;24.90;1.00
20463;DHT22;10390;53.566;9.980;2022-12-07T13:34:51;24.90;1.00
20463;DHT22;10390;53.566;9.980;2022-12-07T13:37:32;24.90;1.00
20463;DHT22;10390;53.566;9.980;2022-12-07T13:40:11;24.90;1.00
20463;DHT22;10390;53.566;9.980;2022-12-07T13:42:44;24.90;1.00
20463;DHT22;10390;53.566;9.980;2022-12-07T13:45:28;24.90;1.00
20463;DHT22;10390;53.566;9.980;2022-12-07T13:48:31;24.80;1.00
20463;DHT22;10390;53.566;9.980;2022-12-07T13:50:59;24.70;1.00
20463;DHT22;10390;53.566;9.980;2022-12-07T13:53:27;24.70;1.00
20463;DHT22;10390;53.566;9.980;2022-12-07T13:56:00;24.70;1.00
20463;DHT22;10390;53.566;9.980;2022-12-07T13:58:33;24.60;1.00
20463;DHT22;10390;53.566;9.980;2022-12-07T14:00:59;24.50;1.00
20463;DHT22;10390;53.566;9.980;2022-12-07T14:03:33;24.50;1.00
20463;DHT22;10390;53.566;9.980;2022-12-07T14:09:05;24.30;1.00
20463;DHT22;10390;53.566;9.980;2022-12-07T14:11:32;24.30;1.00
20463;DHT22;10390;53.566;9.980;2022-12-07T14:14:02;24.30;1.00
20463;DHT22;10390;53.566;9.980;2022-12-07T14:16:34;24.30;1.00
20463;DHT22;10390;53.566;9.980;2022-12-07T14:19:06;24.20;1.00
20463;DHT22;10390;53.566;9.980;2022-12-07T14:22:09;24.20;1.00
20463;DHT22;10390;53.566;9.980;2022-12-07T14:24:46;24.30;1.00
20463;DHT22;10390;53.566;9.980;2022-12-07T14:27:23;24.30;1.00
20463;DHT22;10390;53.566;9.980;2022-12-07T14:29:55;24.40;1.00
20463;DHT22;10390;53.566;9.980;2022-12-07T14:32:27;24.50;1.00
20463;DHT22;10390;53.566;9.980;2022-12-07T14:35:12;24.50;1.00
20463;DHT22;10390;53.566;9.980;2022-12-07T14:37:41;24.60;1.00
20463;DHT22;10390;53.566;9.980;2022-12-07T14:40:13;24.70;1.00
20463;DHT22;10390;53.566;9.980;2022-12-07T14:42:42;24.80;1.00
20463;DHT22;10390;53.566;9.980;2022-12-07T14:45:17;24.80;1.00
20463;DHT22;10390;53.566;9.980;2022-12-07T14:47:45;24.90;1.00
20463;DHT22;10390;53.566;9.980;2022-12-07T14:50:18;24.90;1.00
20463;DHT22;10390;53.566;9.980;2022-12-07T14:52:48;24.90;1.00
20463;DHT22;10390;53.566;9.980;2022-12-07T14:55:28;24.90;1.00
20463;DHT22;10390;53.566;9.980;2022-12-07T14:57:55;24.90;1.00
20463;DHT22;10390;53.566;9.980;2022-12-07T15:00:24;24.90;1.00
20463;DHT22;10390;53.566;9.980;2022-12-07T15:02:51;24.90;1.00
20463;DHT22;10390;53.566;9.980;2022-12-07T15:05:18;24.80;1.00
20463;DHT22;10390;53.566;9.980;2022-12-07T15:07:45;24.80;1.00
20463;DHT22;10390;53.566;9.980;2022-12-07T15:10:19;24.70;1.00
20463;DHT22;10390;53.566;9.980;2022-12-07T15:12:46;24.70;1.00
20463;DHT22;10390;53.566;9.980;2022-12-07T15:15:13;24.60;1.00
20463;DHT22;10390;53.566;9.980;2022-12-07T15:17:39;24.60;1.00
20463;DHT22;10390;53.566;9.980;2022-12-07T15:20:11;24.50;1.00
20463;DHT22;10390;53.566;9.980;2022-12-07T15:22:38;24.50;1.00
20463;DHT22;10390;53.566;9.980;2022-12-07T15:25:04;24.50;1.00
20463;DHT22;10390;53.566;9.980;2022-12-07T15:27:31;24.40;1.00
20463;DHT22;10390;53.566;9.980;2022-12-07T15:29:57;24.40;1.00
20463;DHT22;10390;53.566;9.980;2022-12-07T15:32:22;24.30;1.00
20463;DHT22;10390;53.566;9.980;2022-12-07T15:34:48;24.30;1.00
20463;DHT22;10390;53.566;9.980;2022-12-07T15:37:15;24.30;1.00
20463;DHT22;10390;53.566;9.980;2022-12-07T15:39:41;24.40;1.00
20463;DHT22;10390;53.566;9.980;2022-12-07T15:42:07;24.40;1.00
20463;DHT22;10390;53.566;9.980;2022-12-07T15:44:33;24.50;1.00
20463;DHT22;10390;53.566;9.980;2022-12-07T15:47:17;24.50;1.00
20463;DHT22;10390;53.566;9.980;2022-12-07T15:49:43;24.60;1.00
20463;DHT22;10390;53.566;9.980;2022-12-07T15:52:09;24.70;1.00
20463;DHT22;10390;53.566;9.980;2022-12-07T15:54:35;24.70;1.00
20463;DHT22;10390;53.566;9.980;2022-12-07T15:57:01;24.80;1.00
20463;DHT22;10390;53.566;9.980;2022-12-07T15:59:28;24.80;1.00
20463;DHT22;10390;53.566;9.980;2022-12-07T16:01:54;24.90;1.00
20463;DHT22;10390;53.566;9.980;2022-12-07T16:04:20;24.90;1.00
20463;DHT22;10390;53.566;9.980;2022-12-07T16:06:46;24.90;1.00
20463;DHT22;10390;53.566;9.980;2022-12-07T16:09:11;24.90;1.00
20463;DHT22;10390;53.566;9.980;2022-12-07T16:11:37;24.90;1.00
20463;DHT22;10390;53.566;9.980;2022-12-07T16:14:03;24.90;1.00
20463;DHT22;10390;53.566;9.980;2022-12-07T16:16:29;24.90;1.00
20463;DHT22;10390;53.566;9.980;2022-12-07T16:18:56;24.80;1.00
20463;DHT22;10390;53.566;9.980;2022-12-07T16:21:23;24.80;1.00
20463;DHT22;10390;53.566;9.980;2022-12-07T16:23:48;24.80;1.00
20463;DHT22;10390;53.566;9.980;2022-12-07T16:26:17;24.80;1.00
20463;DHT22;10390;53.566;9.980;2022-12-07T16:28:47;24.70;1.00
20463;DHT22;10390;53.566;9.980;2022-12-07T16:31:16;24.60;1.00
20463;DHT22;10390;53.566;9.980;2022-12-07T16:33:43;24.60;1.00
20463;DHT22;10390;53.566;9.980;2022-12-07T16:36:11;24.50;1.00
20463;DHT22;10390;53.566;9.980;2022-12-07T16:38:38;24.50;1.00
20463;DHT22;10390;53.566;9.980;2022-12-07T16:41:07;24.40;1.00
20463;DHT22;10390;53.566;9.980;2022-12-07T16:43:34;24.40;1.00
20463;DHT22;10390;53.566;9.980;2022-12-07T16:46:00;24.30;1.00
20463;DHT22;10390;53.566;9.980;2022-12-07T16:48:26;24.30;1.00
20463;DHT22;10390;53.566;9.980;2022-12-07T16:50:52;24.30;1.00
20463;DHT22;10390;53.566;9.980;2022-12-07T16:53:20;24.20;1.00
20463;DHT22;10390;53.566;9.980;2022-12-07T16:55:47;24.20;1.00
20463;DHT22;10390;53.566;9.980;2022-12-07T16:58:14;24.30;1.00
20463;DHT22;10390;53.566;9.980;2022-12-07T17:00:41;24.30;1.00
20463;DHT22;10390;53.566;9.980;2022-12-07T17:03:09;24.40;1.00
20463;DHT22;10390;53.566;9.980;2022-12-07T17:05:42;24.50;1.00
20463;DHT22;10390;53.566;9.980;2022-12-07T17:08:10;24.50;1.00
20463;DHT22;10390;53.566;9.980;2022-12-07T17:10:38;24.70;1.00
20463;DHT22;10390;53.566;9.980;2022-12-07T17:13:06;24.70;1.00
20463;DHT22;10390;53.566;9.980;2022-12-07T17:16:02;24.80;1.00
20463;DHT22;10390;53.566;9.980;2022-12-07T17:18:31;24.90;1.00
20463;DHT22;10390;53.566;9.980;2022-12-07T17:21:07;24.90;1.00
20463;DHT22;10390;53.566;9.980;2022-12-07T17:23:36;25.00;1.00
20463;DHT22;10390;53.566;9.980;2022-12-07T17:26:10;24.90;1.00
20463;DHT22;10390;53.566;9.980;2022-12-07T17:28:38;25.00;1.00
20463;DHT22;10390;53.566;9.980;2022-12-07T17:31:09;24.90;1.00
20463;DHT22;10390;53.566;9.980;2022-12-07T17:33:36;24.90;1.00
20463;DHT22;10390;53.566;9.980;2022-12-07T17:36:13;25.00;1.00
20463;DHT22;10390;53.566;9.980;2022-12-07T17:38:47;24.90;1.00
20463;DHT22;10390;53.566;9.980;2022-12-07T17:41:16;24.80;1.00
20463;DHT22;10390;53.566;9.980;2022-12-07T17:44:02;24.80;1.00
20463;DHT22;10390;53.566;9.980;2022-12-07T17:46:29;24.70;1.00
20463;DHT22;10390;53.566;9.980;2022-12-07T17:48:56;24.70;1.00
20463;DHT22;10390;53.566;9.980;2022-12-07T17:51:22;24.60;1.00
20463;DHT22;10390;53.566;9.980;2022-12-07T17:54:06;24.50;1.00
20463;DHT22;10390;53.566;9.980;2022-12-07T17:56:32;24.50;1.00
20463;DHT22;10390;53.566;9.980;2022-12-07T17:58:58;24.50;1.00
20463;DHT22;10390;53.566;9.980;2022-12-07T18:01:24;24.40;1.00
20463;DHT22;10390;53.566;9.980;2022-12-07T18:03:49;24.40;1.00
20463;DHT22;10390;53.566;9.980;2022-12-07T18:06:15;24.30;1.00